Pine Knot, Kentucky
Current Conditions -  °F | °C
As of 1:56 PM on Friday 24 Oct 2014 (Local Time) from KEKQ Reporting Station
Clear Clear  
Wind Chill: 65°   Ceiling: Unl
Heat Index: 65°   Visibility: 7mi
Dew Point: 42°   Wind: 7mph
Humidity: 43%   Direction: NA
Pressure: 30.11"   Gusts: NA
Location:  36.65°N, 84.44°W
Report Text: KEKQ 241756Z AUTO VRB06KT 7SM CLR 18/06 A3011 RMK AO2 58011 T01830055 10183 20033 SLP202
Loading
Personal Weather Stations






























Interactive Weather Map
Tropical Storm Tracking
New forecast layout! Learn more

10-Day Weather Forecast

Advertisements
Track Severe Weather on mobile